KMEM/MEM METAR and TAF weather

Enter ICAO airport designator
Station Type Date Time Source
KMEM METAR 2020/12/05 05:54 UTC NOAA

KMEM 050554Z 00000KT 10SM CLR 04/02 A3016 RMK AO2 SLP214 T00390017 10067 20039 401000039 50001 $


Station Type Date Time Source
KMEM Decoded METAR 2020/12/05 05:54 UTC NOAA

MEMPHIS INTERNATIONAL AIRPORT , TN, United States (KMEM) 35-02N 089-59W 86M
Dec 05, 2020 - 12:54 AM EST / 2020.12.05 0554 UTC
Wind: Calm:0
Visibility: 10 mile(s):0
Sky conditions: clear
Temperature: 39.0 F (3.9 C)
Dew Point: 35.1 F (1.7 C)
Relative Humidity: 85%
Pressure (altimeter): 30.16 in. Hg (1021 hPa)
Pressure tendency: 0.00 inches (0.1 hPa) higher than three hours ago
ob: KMEM 050554Z 00000KT 10SM CLR 04/02 A3016 RMK AO2 SLP214 T00390017 10067 20039 401000039 50001
cycle: 6

Station Type Date Time Source
KMEM TAF 2020/12/05 06:22 UTC NOAA

TAF KMEM 050520Z 0506/0612 27004KT P6SM SKC
FM052000 24005KT P6SM SKC
FM060000 21003KT P6SM FEW250

Example: see airport list